createdAt,value
2023-05-10T00:02:18.371Z,1.10
2023-05-10T00:04:46.149Z,0.98
2023-05-10T00:07:13.921Z,1.05
2023-05-10T00:09:41.746Z,1.00
2023-05-10T00:12:09.387Z,1.05
2023-05-10T00:14:38.699Z,0.90
2023-05-10T00:17:06.485Z,1.23
2023-05-10T00:19:34.320Z,0.85
2023-05-10T00:22:04.397Z,1.00
2023-05-10T00:24:32.107Z,1.00
2023-05-10T00:26:59.783Z,1.38
2023-05-10T00:29:29.233Z,1.05
2023-05-10T00:31:58.542Z,1.00
2023-05-10T00:34:26.705Z,1.10
2023-05-10T00:36:54.367Z,0.90
2023-05-10T00:39:22.575Z,0.98
2023-05-10T00:41:50.284Z,1.02
2023-05-10T00:44:19.378Z,0.82
2023-05-10T00:46:47.469Z,1.00
2023-05-10T00:49:16.769Z,0.90
2023-05-10T00:51:45.686Z,0.80
2023-05-10T00:54:13.931Z,0.80
2023-05-10T00:56:42.276Z,0.80
2023-05-10T00:59:10.974Z,0.80
2023-05-10T01:01:40.086Z,0.80
2023-05-10T01:04:07.809Z,0.90
2023-05-10T01:06:36.948Z,0.90
2023-05-10T01:12:55.260Z,1.00
2023-05-10T01:15:24.041Z,1.10
2023-05-10T01:17:52.532Z,0.80
2023-05-10T01:20:20.714Z,1.00
2023-05-10T01:23:14.682Z,0.90
2023-05-10T01:26:19.901Z,0.93
2023-05-10T01:29:07.151Z,0.90
2023-05-10T01:32:08.717Z,1.10
2023-05-10T01:34:38.158Z,1.42
2023-05-10T01:37:11.408Z,1.63
2023-05-10T01:39:45.990Z,1.17
2023-05-10T01:42:18.601Z,1.40
2023-05-10T01:44:56.189Z,1.20
2023-05-10T01:47:31.309Z,1.42
2023-05-10T01:50:05.197Z,1.48
2023-05-10T01:52:35.943Z,1.42
2023-05-10T01:55:06.808Z,1.55
2023-05-10T01:57:36.438Z,1.45
2023-05-10T02:00:06.325Z,2.22
2023-05-10T02:02:39.923Z,1.50
2023-05-10T02:05:09.109Z,1.63
2023-05-10T02:07:38.622Z,1.58
2023-05-10T02:10:08.299Z,1.83
2023-05-10T02:12:38.221Z,1.80
2023-05-10T02:15:09.475Z,1.30
2023-05-10T02:17:41.754Z,1.38
2023-05-10T02:20:11.540Z,1.52
2023-05-10T02:22:40.400Z,1.83
2023-05-10T02:25:10.752Z,1.48
2023-05-10T02:27:39.280Z,1.40
2023-05-10T02:30:08.904Z,1.50
2023-05-10T02:32:39.524Z,1.67
2023-05-10T02:35:09.804Z,1.63
2023-05-10T02:37:40.130Z,1.55
2023-05-10T02:40:09.421Z,1.48
2023-05-10T02:42:39.689Z,1.90
2023-05-10T02:45:13.397Z,1.77
2023-05-10T02:47:42.875Z,1.60
2023-05-10T02:50:11.422Z,1.60
2023-05-10T02:52:43.866Z,1.50
2023-05-10T02:55:14.087Z,1.52
2023-05-10T02:57:47.290Z,1.85
2023-05-10T03:00:15.501Z,1.40
2023-05-10T03:02:44.727Z,1.40
2023-05-10T03:05:12.410Z,1.58
2023-05-10T03:07:40.252Z,1.40
2023-05-10T03:10:09.136Z,1.40
2023-05-10T03:12:49.614Z,1.30
2023-05-10T03:15:25.225Z,1.30
2023-05-10T03:18:03.879Z,1.50
2023-05-10T03:20:37.412Z,1.45
2023-05-10T03:23:14.511Z,1.50
2023-05-10T03:25:44.868Z,1.83
2023-05-10T03:28:13.775Z,1.50
2023-05-10T03:30:42.661Z,1.33
2023-05-10T03:33:11.953Z,1.50
2023-05-10T03:35:39.931Z,1.42
2023-05-10T03:38:07.671Z,1.30
2023-05-10T03:40:35.602Z,1.50
2023-05-10T03:43:03.375Z,1.55
2023-05-10T03:45:32.072Z,1.40
2023-05-10T03:48:00.111Z,1.25
2023-05-10T03:50:29.449Z,1.63
2023-05-10T03:52:57.039Z,1.50
2023-05-10T03:55:24.875Z,1.40
2023-05-10T03:57:54.748Z,1.30
2023-05-10T04:00:22.677Z,1.30
2023-05-10T04:02:50.618Z,1.50
2023-05-10T04:05:18.404Z,1.40
2023-05-10T04:07:48.108Z,1.90
2023-05-10T04:10:17.717Z,1.40
2023-05-10T04:12:45.787Z,1.50
2023-05-10T04:15:13.516Z,1.42
2023-05-10T04:17:42.281Z,1.45
2023-05-10T04:20:11.131Z,1.52
2023-05-10T04:22:39.346Z,1.40
2023-05-10T04:25:10.581Z,1.48
2023-05-10T04:27:38.341Z,1.58
2023-05-10T04:30:07.736Z,1.48
2023-05-10T04:32:35.511Z,1.50
2023-05-10T04:35:04.764Z,1.60
2023-05-10T04:37:32.450Z,1.30
2023-05-10T04:40:01.130Z,1.80
2023-05-10T04:42:30.277Z,1.80
2023-05-10T04:44:57.925Z,2.10
2023-05-10T04:47:25.993Z,2.05
2023-05-10T04:49:53.682Z,2.20
2023-05-10T04:52:21.417Z,1.90
2023-05-10T04:54:49.183Z,2.03
2023-05-10T04:57:17.051Z,2.10
2023-05-10T04:59:47.995Z,2.00
2023-05-10T05:02:17.308Z,2.17
2023-05-10T05:04:44.994Z,2.28
2023-05-10T05:07:12.781Z,2.15
2023-05-10T05:09:40.491Z,2.47
2023-05-10T05:12:08.385Z,2.10
2023-05-10T05:14:40.281Z,2.42
2023-05-10T05:17:09.632Z,2.42
2023-05-10T05:19:37.923Z,2.22
2023-05-10T05:22:05.876Z,2.20
2023-05-10T05:24:38.514Z,2.35
2023-05-10T05:27:06.711Z,2.10
2023-05-10T05:29:34.864Z,2.20
2023-05-10T05:32:02.724Z,2.47
2023-05-10T05:34:32.057Z,1.95
2023-05-10T05:36:59.934Z,1.98
2023-05-10T05:39:27.881Z,2.30
2023-05-10T05:41:55.611Z,2.38
2023-05-10T05:44:23.236Z,2.08
2023-05-10T05:46:50.950Z,2.35
2023-05-10T05:49:18.791Z,2.00
2023-05-10T05:51:48.521Z,1.90
2023-05-10T05:54:16.281Z,2.22
2023-05-10T05:56:45.391Z,1.80
2023-05-10T05:59:13.250Z,1.80
2023-05-10T06:01:41.092Z,2.33
2023-05-10T06:04:08.948Z,1.90
2023-05-10T06:06:36.723Z,2.00
2023-05-10T06:09:06.068Z,1.90
2023-05-10T06:11:34.114Z,1.90
2023-05-10T06:14:01.945Z,1.75
2023-05-10T06:16:30.807Z,1.73
2023-05-10T06:18:58.607Z,1.67
2023-05-10T06:21:26.721Z,1.50
2023-05-10T06:23:54.466Z,1.80
2023-05-10T06:26:23.669Z,1.73
2023-05-10T06:28:51.570Z,1.48
2023-05-10T06:31:19.937Z,1.80
2023-05-10T06:33:48.017Z,1.40
2023-05-10T06:36:16.008Z,1.50
2023-05-10T06:38:43.799Z,1.40
2023-05-10T06:41:11.781Z,1.33
2023-05-10T06:43:42.322Z,1.50
2023-05-10T06:46:10.317Z,1.02
2023-05-10T06:48:38.070Z,1.60
2023-05-10T06:51:06.047Z,1.33
2023-05-10T06:53:33.747Z,1.45
2023-05-10T06:56:01.369Z,1.38
2023-05-10T06:58:29.215Z,1.35
2023-05-10T07:01:04.240Z,1.05
2023-05-10T07:03:32.092Z,1.58
2023-05-10T07:06:04.063Z,1.10
2023-05-10T07:08:32.221Z,1.30
2023-05-10T07:11:04.755Z,1.10
2023-05-10T07:16:03.512Z,0.80
2023-05-10T07:18:31.617Z,1.13
2023-05-10T07:20:59.548Z,0.88
2023-05-10T07:23:27.279Z,1.10
2023-05-10T07:25:55.620Z,1.00
2023-05-10T07:28:25.302Z,0.93
2023-05-10T07:30:53.644Z,0.90
2023-05-10T07:33:22.921Z,0.73
2023-05-10T07:35:51.908Z,1.10
2023-05-10T07:38:19.646Z,0.85
2023-05-10T07:40:47.347Z,1.00
2023-05-10T07:43:15.002Z,1.13
2023-05-10T07:45:43.313Z,1.10
2023-05-10T07:48:11.029Z,1.13
2023-05-10T07:50:40.371Z,1.23
2023-05-10T07:53:08.635Z,1.20
2023-05-10T07:55:36.711Z,1.05
2023-05-10T07:58:04.664Z,1.35
2023-05-10T08:00:32.430Z,1.00
2023-05-10T08:03:00.383Z,1.00
2023-05-10T08:05:29.931Z,1.02
2023-05-10T08:07:59.089Z,1.13
2023-05-10T08:10:30.162Z,1.20
2023-05-10T08:12:59.503Z,1.10
2023-05-10T08:15:27.573Z,1.00
2023-05-10T08:17:55.757Z,0.93
2023-05-10T08:20:23.689Z,1.00
2023-05-10T08:22:52.016Z,1.10
2023-05-10T08:25:21.834Z,1.27
2023-05-10T08:27:49.811Z,1.25
2023-05-10T08:30:17.921Z,1.10
2023-05-10T08:32:45.681Z,1.15
2023-05-10T08:35:13.574Z,1.23
2023-05-10T08:37:41.345Z,1.00
2023-05-10T08:40:13.668Z,1.10
2023-05-10T08:42:49.594Z,1.40
2023-05-10T08:45:18.478Z,1.05
2023-05-10T08:47:46.823Z,1.00
2023-05-10T08:50:17.101Z,1.00
2023-05-10T08:52:46.080Z,1.23
2023-05-10T08:55:13.840Z,1.30
2023-05-10T08:57:43.548Z,1.10
2023-05-10T09:00:12.459Z,1.80
2023-05-10T09:02:40.209Z,1.20
2023-05-10T09:05:10.072Z,1.30
2023-05-10T09:07:38.977Z,1.27
2023-05-10T09:10:08.432Z,1.20
2023-05-10T09:12:36.744Z,1.20
2023-05-10T09:15:07.797Z,1.40
2023-05-10T09:17:36.224Z,1.70
2023-05-10T09:20:06.406Z,1.40
2023-05-10T09:22:34.132Z,1.50
2023-05-10T09:25:09.714Z,1.35
2023-05-10T09:27:38.241Z,1.77
2023-05-10T09:30:09.565Z,1.50
2023-05-10T09:32:41.816Z,1.73
2023-05-10T09:35:11.343Z,1.80
2023-05-10T09:37:42.594Z,1.80
2023-05-10T09:40:14.336Z,1.60
2023-05-10T09:42:44.244Z,1.70
2023-05-10T09:45:13.561Z,1.90
2023-05-10T09:47:41.772Z,1.90
2023-05-10T09:50:10.465Z,2.25
2023-05-10T09:52:49.591Z,2.10
2023-05-10T09:55:18.578Z,2.10
2023-05-10T09:57:47.161Z,1.90
2023-05-10T10:00:21.120Z,2.75
2023-05-10T10:02:55.901Z,2.00
2023-05-10T10:05:30.498Z,1.55
2023-05-10T10:07:59.422Z,1.90
2023-05-10T10:10:27.245Z,1.70
2023-05-10T10:12:55.223Z,2.15
2023-05-10T10:15:25.527Z,1.50
2023-05-10T10:17:54.664Z,1.58
2023-05-10T10:20:25.087Z,1.35
2023-05-10T10:22:52.919Z,1.42
2023-05-10T10:25:27.109Z,1.02
2023-05-10T10:28:18.450Z,1.20
2023-05-10T10:30:50.585Z,0.80
2023-05-10T10:33:38.768Z,1.10
2023-05-10T10:36:07.478Z,0.90
2023-05-10T10:38:39.993Z,1.00
2023-05-10T10:43:41.099Z,1.00
2023-05-10T10:46:18.579Z,1.23
2023-05-10T10:48:50.359Z,0.90
2023-05-10T10:51:18.129Z,1.13
2023-05-10T10:53:45.923Z,1.00
2023-05-10T10:56:16.407Z,1.10
2023-05-10T10:58:52.282Z,0.90
2023-05-10T11:01:21.921Z,0.98
2023-05-10T11:04:21.612Z,0.80
2023-05-10T11:06:49.355Z,0.80
2023-05-10T11:09:17.191Z,0.85
2023-05-10T11:11:53.065Z,0.90
2023-05-10T11:14:23.515Z,1.00
2023-05-10T11:16:53.202Z,1.45
2023-05-10T11:19:21.502Z,1.02
2023-05-10T11:21:51.340Z,1.10
2023-05-10T11:24:20.948Z,1.30
2023-05-10T11:26:54.373Z,1.10
2023-05-10T11:29:22.124Z,0.80
2023-05-10T11:31:51.042Z,0.90
2023-05-10T11:34:27.319Z,0.90
2023-05-10T11:36:57.756Z,1.10
2023-05-10T11:39:28.390Z,0.90
2023-05-10T11:41:56.952Z,0.75
2023-05-10T11:44:24.988Z,0.70
2023-05-10T11:46:52.856Z,0.70
2023-05-10T11:49:20.685Z,1.17
2023-05-10T11:51:49.800Z,0.80
2023-05-10T11:54:17.510Z,0.80
2023-05-10T11:56:45.884Z,1.08
2023-05-10T11:59:16.659Z,0.85
2023-05-10T12:01:44.653Z,0.90
2023-05-10T12:04:12.777Z,1.00
2023-05-10T12:06:42.770Z,0.70
2023-05-10T12:09:14.413Z,0.80
2023-05-10T12:11:44.318Z,0.70
2023-05-10T12:14:13.266Z,0.70
2023-05-10T12:16:41.232Z,0.75
2023-05-10T12:19:09.181Z,0.95
2023-05-10T12:21:37.146Z,0.70
2023-05-10T12:24:06.216Z,0.70
2023-05-10T12:26:37.728Z,0.60
2023-05-10T12:29:16.654Z,0.57
2023-05-10T12:31:55.261Z,0.80
2023-05-10T12:34:32.225Z,0.70
2023-05-10T12:37:00.822Z,0.70
2023-05-10T12:39:28.667Z,0.80
2023-05-10T12:41:58.312Z,0.57
2023-05-10T12:44:26.424Z,0.63
2023-05-10T12:46:54.166Z,0.70
2023-05-10T12:49:22.978Z,0.73
2023-05-10T12:51:50.855Z,0.70
2023-05-10T12:54:27.874Z,0.80
2023-05-10T12:56:57.091Z,0.70
2023-05-10T12:59:24.823Z,1.02
2023-05-10T13:01:52.533Z,0.90
2023-05-10T13:04:20.335Z,0.80
2023-05-10T13:06:48.339Z,0.80
2023-05-10T13:09:16.051Z,0.73
2023-05-10T13:11:43.841Z,0.85
2023-05-10T13:14:13.089Z,1.00
2023-05-10T13:16:41.139Z,0.80
2023-05-10T13:19:09.381Z,0.95
2023-05-10T13:21:37.664Z,0.93
2023-05-10T13:24:06.668Z,0.77
2023-05-10T13:26:34.557Z,0.75
2023-05-10T13:29:02.230Z,0.60
2023-05-10T13:31:31.855Z,0.85
2023-05-10T13:33:59.572Z,0.70
2023-05-10T13:36:27.451Z,0.82
2023-05-10T13:38:55.309Z,0.60
2023-05-10T13:41:23.262Z,0.70
2023-05-10T13:43:51.059Z,0.68
2023-05-10T13:46:18.803Z,0.80
2023-05-10T13:48:47.915Z,0.77
2023-05-10T13:51:15.593Z,0.85
2023-05-10T13:53:43.347Z,0.98
2023-05-10T13:56:11.120Z,0.75
2023-05-10T13:58:39.149Z,0.70
2023-05-10T14:01:07.009Z,0.90
2023-05-10T14:03:36.292Z,0.70
2023-05-10T14:06:05.846Z,0.73
2023-05-10T14:08:33.992Z,0.80
2023-05-10T14:11:01.687Z,0.90
2023-05-10T14:13:29.661Z,0.77
2023-05-10T14:15:57.696Z,0.70
2023-05-10T14:18:25.607Z,0.70
2023-05-10T14:20:53.328Z,0.90
2023-05-10T14:23:25.141Z,0.80
2023-05-10T14:25:57.131Z,0.60
2023-05-10T14:28:26.019Z,0.88
2023-05-10T14:30:53.691Z,0.95
2023-05-10T14:33:22.170Z,0.80
2023-05-10T14:35:50.345Z,0.70
2023-05-10T14:38:18.106Z,1.08
2023-05-10T14:40:48.352Z,0.73
2023-05-10T14:43:16.106Z,0.65
2023-05-10T14:45:43.886Z,0.63
2023-05-10T14:48:16.213Z,0.70
2023-05-10T14:50:43.844Z,0.77
2023-05-10T14:53:11.820Z,0.90
2023-05-10T14:55:40.242Z,0.73
2023-05-10T14:58:09.289Z,0.65
2023-05-10T15:00:37.287Z,0.70
2023-05-10T15:03:05.660Z,0.68
2023-05-10T15:05:33.733Z,0.82
2023-05-10T15:08:01.889Z,1.10
2023-05-10T15:10:29.507Z,0.95
2023-05-10T15:12:57.124Z,1.15
2023-05-10T15:15:26.631Z,0.88
2023-05-10T15:17:54.262Z,1.00
2023-05-10T15:20:22.237Z,0.70
2023-05-10T15:22:50.115Z,0.70
2023-05-10T15:25:18.365Z,0.80
2023-05-10T15:27:46.314Z,0.70
2023-05-10T15:30:14.667Z,0.60
2023-05-10T15:32:43.918Z,0.70
2023-05-10T15:35:12.097Z,0.60
2023-05-10T15:37:39.752Z,0.60
2023-05-10T15:40:08.601Z,0.50
2023-05-10T15:42:36.389Z,0.57
2023-05-10T15:45:05.072Z,0.50
2023-05-10T15:47:32.898Z,0.60
2023-05-10T15:50:02.073Z,0.57
2023-05-10T15:52:29.748Z,0.43
2023-05-10T15:54:57.509Z,0.40
2023-05-10T15:57:25.335Z,0.50
2023-05-10T15:59:53.555Z,0.50
2023-05-10T16:02:22.630Z,0.50
2023-05-10T16:04:51.786Z,0.40
2023-05-10T16:07:20.826Z,0.50
2023-05-10T16:09:49.439Z,0.70
2023-05-10T16:12:17.309Z,0.50
2023-05-10T16:14:44.977Z,0.40
2023-05-10T16:17:13.044Z,0.57
2023-05-10T16:19:41.008Z,0.50
2023-05-10T16:22:08.809Z,0.40
2023-05-10T16:24:37.823Z,0.60
2023-05-10T16:27:05.600Z,0.70
2023-05-10T16:29:33.216Z,0.60
2023-05-10T16:32:01.664Z,0.47
2023-05-10T16:34:29.292Z,0.35
2023-05-10T16:36:57.210Z,0.52
2023-05-10T16:39:24.849Z,0.80
2023-05-10T16:41:53.850Z,0.60
2023-05-10T16:44:23.576Z,0.60
2023-05-10T16:46:53.275Z,0.88
2023-05-10T16:49:20.954Z,0.65
2023-05-10T16:51:48.673Z,0.60
2023-05-10T16:54:17.326Z,0.60
2023-05-10T16:56:45.367Z,0.60
2023-05-10T16:59:14.650Z,0.70
2023-05-10T17:01:42.372Z,1.23
2023-05-10T17:04:10.127Z,0.98
2023-05-10T17:06:38.679Z,0.82
2023-05-10T17:09:07.294Z,0.85
2023-05-10T17:11:35.005Z,0.77
2023-05-10T17:14:02.787Z,0.60
2023-05-10T17:16:31.914Z,0.60
2023-05-10T17:18:59.832Z,0.70
2023-05-10T17:21:27.754Z,0.63
2023-05-10T17:23:55.589Z,0.60
2023-05-10T17:26:23.352Z,0.50
2023-05-10T17:28:50.989Z,0.60
2023-05-10T17:31:18.647Z,0.73
2023-05-10T17:33:47.702Z,0.60
2023-05-10T17:36:15.302Z,0.90
2023-05-10T17:38:43.320Z,0.63
2023-05-10T17:41:10.962Z,0.57
2023-05-10T17:43:38.616Z,0.60
2023-05-10T17:46:06.405Z,0.80
2023-05-10T17:48:36.544Z,0.60
2023-05-10T17:51:06.713Z,0.60
2023-05-10T17:53:35.436Z,0.55
2023-05-10T17:56:03.595Z,0.77
2023-05-10T17:58:31.367Z,0.95
2023-05-10T18:00:59.112Z,0.68
2023-05-10T18:03:26.882Z,0.60
2023-05-10T18:05:55.466Z,0.60
2023-05-10T18:08:27.169Z,0.73
2023-05-10T18:10:55.162Z,1.30
2023-05-10T18:13:22.755Z,0.60
2023-05-10T18:15:50.749Z,1.13
2023-05-10T18:18:18.462Z,0.70
2023-05-10T18:20:46.713Z,0.77
2023-05-10T18:23:15.347Z,0.90
2023-05-10T18:25:44.474Z,0.60
2023-05-10T18:28:12.211Z,0.50
2023-05-10T18:34:27.452Z,0.90
2023-05-10T18:36:55.343Z,1.00
2023-05-10T18:39:23.363Z,0.85
2023-05-10T18:41:52.723Z,0.80
2023-05-10T18:44:21.890Z,0.80
2023-05-10T18:49:19.756Z,0.57
2023-05-10T18:51:47.673Z,0.80
2023-05-10T18:54:15.538Z,0.80
2023-05-10T18:56:45.178Z,0.95
2023-05-10T19:00:10.178Z,0.77
2023-05-10T19:02:39.740Z,0.80
2023-05-10T19:05:08.637Z,0.70
2023-05-10T19:07:40.854Z,0.77
2023-05-10T19:10:09.572Z,0.80
2023-05-10T19:12:38.454Z,0.70
2023-05-10T19:15:07.371Z,1.05
2023-05-10T19:17:36.668Z,0.70
2023-05-10T19:20:06.765Z,0.80
2023-05-10T19:22:47.252Z,0.80
2023-05-10T19:25:22.805Z,0.75
2023-05-10T19:27:52.012Z,0.90
2023-05-10T19:30:19.807Z,1.08
2023-05-10T19:32:47.587Z,0.90
2023-05-10T19:35:17.341Z,0.98
2023-05-10T19:37:47.238Z,0.90
2023-05-10T19:40:15.949Z,1.00
2023-05-10T19:42:43.670Z,0.90
2023-05-10T19:45:12.738Z,0.90
2023-05-10T19:47:42.110Z,0.80
2023-05-10T19:50:10.262Z,0.80
2023-05-10T19:52:39.377Z,0.70
2023-05-10T19:55:08.846Z,0.90
2023-05-10T19:57:36.543Z,1.05
2023-05-10T20:00:05.228Z,0.98
2023-05-10T20:02:32.923Z,0.65
2023-05-10T20:05:13.696Z,0.77
2023-05-10T20:07:42.836Z,0.85
2023-05-10T20:10:11.534Z,0.65
2023-05-10T20:12:39.268Z,0.80
2023-05-10T20:15:08.560Z,0.80
2023-05-10T20:17:36.618Z,0.70
2023-05-10T20:20:04.989Z,0.80
2023-05-10T20:22:32.666Z,0.95
2023-05-10T20:25:01.613Z,1.20
2023-05-10T20:27:29.619Z,0.95
2023-05-10T20:29:57.494Z,0.90
2023-05-10T20:32:25.167Z,0.90
2023-05-10T20:34:52.841Z,0.95
2023-05-10T20:37:20.565Z,0.90
2023-05-10T20:39:50.300Z,1.02
2023-05-10T20:42:19.628Z,1.02
2023-05-10T20:44:47.498Z,0.90
2023-05-10T20:47:15.548Z,1.00
2023-05-10T20:49:43.448Z,1.05
2023-05-10T20:52:11.259Z,1.10
2023-05-10T20:54:38.912Z,0.95
2023-05-10T20:57:06.776Z,1.13
2023-05-10T20:59:35.961Z,1.10
2023-05-10T21:02:03.713Z,0.80
2023-05-10T21:04:31.935Z,0.90
2023-05-10T21:07:00.923Z,1.20
2023-05-10T21:09:28.596Z,1.10
2023-05-10T21:11:56.626Z,1.33
2023-05-10T21:14:24.291Z,1.20
2023-05-10T21:16:54.480Z,1.27
2023-05-10T21:19:22.068Z,1.13
2023-05-10T21:21:49.864Z,1.05
2023-05-10T21:24:17.653Z,1.08
2023-05-10T21:26:45.562Z,0.93
2023-05-10T21:29:13.237Z,0.90
2023-05-10T21:31:40.937Z,0.90
2023-05-10T21:34:10.038Z,1.05
2023-05-10T21:36:37.743Z,1.50
2023-05-10T21:39:05.431Z,1.40
2023-05-10T21:41:33.048Z,1.42
2023-05-10T21:44:00.702Z,1.27
2023-05-10T21:46:28.332Z,1.10
2023-05-10T21:48:56.069Z,1.30
2023-05-10T21:51:25.050Z,1.10
2023-05-10T21:53:52.917Z,1.10
2023-05-10T21:56:20.619Z,0.80
2023-05-10T21:58:48.434Z,1.45
2023-05-10T22:01:17.946Z,1.42
2023-05-10T22:03:45.759Z,1.38
2023-05-10T22:06:13.552Z,0.95
2023-05-10T22:08:42.587Z,1.05
2023-05-10T22:11:10.767Z,0.77
2023-05-10T22:13:38.369Z,1.27
2023-05-10T22:16:06.835Z,1.00
2023-05-10T22:18:34.743Z,0.90
2023-05-10T22:21:02.501Z,0.80
2023-05-10T22:23:30.181Z,1.10
2023-05-10T22:26:02.630Z,0.90
2023-05-10T22:28:30.701Z,1.40
2023-05-10T22:30:58.364Z,0.90
2023-05-10T22:33:26.050Z,0.90
2023-05-10T22:35:53.684Z,1.00
2023-05-10T22:38:21.484Z,1.00
2023-05-10T22:40:49.130Z,0.95
2023-05-10T22:43:21.145Z,0.77
2023-05-10T22:45:48.835Z,1.30
2023-05-10T22:48:16.513Z,0.85
2023-05-10T22:50:44.124Z,0.70
2023-05-10T22:53:11.870Z,0.90
2023-05-10T22:55:39.507Z,0.90
2023-05-10T22:58:07.548Z,0.90
2023-05-10T23:00:36.565Z,1.00
2023-05-10T23:03:04.488Z,1.15
2023-05-10T23:05:32.226Z,0.90
2023-05-10T23:07:59.827Z,0.75
2023-05-10T23:10:27.849Z,0.80
2023-05-10T23:12:56.025Z,0.80
2023-05-10T23:15:23.630Z,0.70
2023-05-10T23:17:52.659Z,0.80
2023-05-10T23:20:20.596Z,0.90
2023-05-10T23:22:49.550Z,0.98
2023-05-10T23:25:17.397Z,0.80
2023-05-10T23:27:45.071Z,0.80
2023-05-10T23:30:13.216Z,0.80
2023-05-10T23:32:41.121Z,0.90
2023-05-10T23:35:11.249Z,0.80
2023-05-10T23:37:38.945Z,0.65
2023-05-10T23:40:08.096Z,0.68
2023-05-10T23:42:35.970Z,0.82
2023-05-10T23:45:03.695Z,0.70
2023-05-10T23:47:31.503Z,0.70
2023-05-10T23:49:59.251Z,0.70
2023-05-10T23:52:28.255Z,1.02
2023-05-10T23:54:56.028Z,0.77
2023-05-10T23:57:23.643Z,0.85
2023-05-10T23:59:51.307Z,0.60
